sensor_id;sensor_type;location;lat;lon;timestamp;P1;durP1;ratioP1;P2;durP2;ratioP2
2129;SDS011;1071;52.544;13.374;2023-08-30T00:01:41;4.03;;;3.60;;
2129;SDS011;1071;52.544;13.374;2023-08-30T00:04:08;3.70;;;3.33;;
2129;SDS011;1071;52.544;13.374;2023-08-30T00:06:36;4.53;;;3.70;;
2129;SDS011;1071;52.544;13.374;2023-08-30T00:09:07;3.60;;;3.30;;
2129;SDS011;1071;52.544;13.374;2023-08-30T00:11:34;3.33;;;3.03;;
2129;SDS011;1071;52.544;13.374;2023-08-30T00:14:07;5.50;;;4.20;;
2129;SDS011;1071;52.544;13.374;2023-08-30T00:16:34;4.40;;;4.00;;
2129;SDS011;1071;52.544;13.374;2023-08-30T00:19:03;3.77;;;3.47;;
2129;SDS011;1071;52.544;13.374;2023-08-30T00:21:30;3.53;;;3.23;;
2129;SDS011;1071;52.544;13.374;2023-08-30T00:24:06;4.33;;;4.03;;
2129;SDS011;1071;52.544;13.374;2023-08-30T00:26:35;4.37;;;4.07;;
2129;SDS011;1071;52.544;13.374;2023-08-30T00:29:02;3.77;;;3.47;;
2129;SDS011;1071;52.544;13.374;2023-08-30T00:31:29;4.20;;;3.90;;
2129;SDS011;1071;52.544;13.374;2023-08-30T00:33:56;4.13;;;3.70;;
2129;SDS011;1071;52.544;13.374;2023-08-30T00:36:23;3.50;;;3.13;;
2129;SDS011;1071;52.544;13.374;2023-08-30T00:38:52;4.77;;;4.30;;
2129;SDS011;1071;52.544;13.374;2023-08-30T00:41:20;3.90;;;3.50;;
2129;SDS011;1071;52.544;13.374;2023-08-30T00:43:47;4.37;;;3.70;;
2129;SDS011;1071;52.544;13.374;2023-08-30T00:46:14;5.60;;;4.27;;
2129;SDS011;1071;52.544;13.374;2023-08-30T00:51:12;5.40;;;4.90;;
2129;SDS011;1071;52.544;13.374;2023-08-30T00:53:40;4.00;;;3.70;;
2129;SDS011;1071;52.544;13.374;2023-08-30T00:56:07;4.20;;;3.90;;
2129;SDS011;1071;52.544;13.374;2023-08-30T00:58:38;3.37;;;3.17;;
2129;SDS011;1071;52.544;13.374;2023-08-30T01:01:05;3.13;;;2.93;;
2129;SDS011;1071;52.544;13.374;2023-08-30T01:03:33;4.17;;;3.83;;
2129;SDS011;1071;52.544;13.374;2023-08-30T01:06:00;4.20;;;3.60;;
2129;SDS011;1071;52.544;13.374;2023-08-30T01:08:27;3.40;;;3.10;;
2129;SDS011;1071;52.544;13.374;2023-08-30T01:10:57;4.37;;;4.07;;
2129;SDS011;1071;52.544;13.374;2023-08-30T01:13:29;4.07;;;3.70;;
2129;SDS011;1071;52.544;13.374;2023-08-30T01:16:03;3.33;;;3.10;;
2129;SDS011;1071;52.544;13.374;2023-08-30T01:18:32;2.90;;;2.70;;
2129;SDS011;1071;52.544;13.374;2023-08-30T01:21:02;4.07;;;3.70;;
2129;SDS011;1071;52.544;13.374;2023-08-30T01:23:36;3.53;;;3.23;;
2129;SDS011;1071;52.544;13.374;2023-08-30T01:26:13;3.30;;;3.00;;
2129;SDS011;1071;52.544;13.374;2023-08-30T01:28:48;3.17;;;2.97;;
2129;SDS011;1071;52.544;13.374;2023-08-30T01:31:18;5.13;;;3.43;;
2129;SDS011;1071;52.544;13.374;2023-08-30T01:33:47;3.60;;;3.37;;
2129;SDS011;1071;52.544;13.374;2023-08-30T01:36:16;3.13;;;2.63;;
2129;SDS011;1071;52.544;13.374;2023-08-30T01:38:45;3.63;;;3.33;;
2129;SDS011;1071;52.544;13.374;2023-08-30T01:41:13;3.00;;;2.80;;
2129;SDS011;1071;52.544;13.374;2023-08-30T01:43:41;3.27;;;3.00;;
2129;SDS011;1071;52.544;13.374;2023-08-30T01:46:10;2.87;;;2.67;;
2129;SDS011;1071;52.544;13.374;2023-08-30T01:48:38;3.30;;;2.60;;
2129;SDS011;1071;52.544;13.374;2023-08-30T01:51:07;4.23;;;3.37;;
2129;SDS011;1071;52.544;13.374;2023-08-30T01:53:35;4.10;;;3.47;;
2129;SDS011;1071;52.544;13.374;2023-08-30T01:56:04;3.40;;;3.10;;
2129;SDS011;1071;52.544;13.374;2023-08-30T01:58:31;3.90;;;3.50;;
2129;SDS011;1071;52.544;13.374;2023-08-30T02:00:58;2.83;;;2.63;;
2129;SDS011;1071;52.544;13.374;2023-08-30T02:03:28;3.17;;;2.97;;
2129;SDS011;1071;52.544;13.374;2023-08-30T02:05:57;2.80;;;2.60;;
2129;SDS011;1071;52.544;13.374;2023-08-30T02:11:52;3.10;;;2.90;;
2129;SDS011;1071;52.544;13.374;2023-08-30T02:14:24;3.97;;;3.67;;
2129;SDS011;1071;52.544;13.374;2023-08-30T02:16:53;4.17;;;3.53;;
2129;SDS011;1071;52.544;13.374;2023-08-30T02:19:23;4.00;;;3.70;;
2129;SDS011;1071;52.544;13.374;2023-08-30T02:21:50;3.60;;;3.40;;
2129;SDS011;1071;52.544;13.374;2023-08-30T02:24:17;4.80;;;4.37;;
2129;SDS011;1071;52.544;13.374;2023-08-30T02:26:44;4.33;;;4.00;;
2129;SDS011;1071;52.544;13.374;2023-08-30T02:29:11;3.77;;;3.57;;
2129;SDS011;1071;52.544;13.374;2023-08-30T02:31:50;3.20;;;3.00;;
2129;SDS011;1071;52.544;13.374;2023-08-30T02:34:17;3.20;;;3.00;;
2129;SDS011;1071;52.544;13.374;2023-08-30T02:36:53;3.00;;;2.77;;
2129;SDS011;1071;52.544;13.374;2023-08-30T02:39:20;4.90;;;2.97;;
2129;SDS011;1071;52.544;13.374;2023-08-30T02:41:47;2.93;;;2.73;;
2129;SDS011;1071;52.544;13.374;2023-08-30T02:44:14;4.20;;;3.90;;
2129;SDS011;1071;52.544;13.374;2023-08-30T02:46:41;3.60;;;3.30;;
2129;SDS011;1071;52.544;13.374;2023-08-30T02:49:08;4.63;;;4.10;;
2129;SDS011;1071;52.544;13.374;2023-08-30T02:51:36;3.47;;;3.23;;
2129;SDS011;1071;52.544;13.374;2023-08-30T02:54:04;3.40;;;3.10;;
2129;SDS011;1071;52.544;13.374;2023-08-30T02:56:32;3.57;;;3.27;;
2129;SDS011;1071;52.544;13.374;2023-08-30T02:58:59;3.20;;;3.00;;
2129;SDS011;1071;52.544;13.374;2023-08-30T03:01:25;3.80;;;3.10;;
2129;SDS011;1071;52.544;13.374;2023-08-30T03:03:53;4.33;;;2.60;;
2129;SDS011;1071;52.544;13.374;2023-08-30T03:06:21;3.07;;;2.80;;
2129;SDS011;1071;52.544;13.374;2023-08-30T03:08:48;3.50;;;3.03;;
2129;SDS011;1071;52.544;13.374;2023-08-30T03:11:16;4.00;;;2.47;;
2129;SDS011;1071;52.544;13.374;2023-08-30T03:13:43;4.60;;;3.07;;
2129;SDS011;1071;52.544;13.374;2023-08-30T03:16:10;3.23;;;2.83;;
2129;SDS011;1071;52.544;13.374;2023-08-30T03:18:38;3.00;;;2.80;;
2129;SDS011;1071;52.544;13.374;2023-08-30T03:21:05;4.63;;;3.10;;
2129;SDS011;1071;52.544;13.374;2023-08-30T03:23:32;2.87;;;2.50;;
2129;SDS011;1071;52.544;13.374;2023-08-30T03:26:07;3.67;;;3.13;;
2129;SDS011;1071;52.544;13.374;2023-08-30T03:28:37;3.00;;;2.80;;
2129;SDS011;1071;52.544;13.374;2023-08-30T03:31:13;3.47;;;3.17;;
2129;SDS011;1071;52.544;13.374;2023-08-30T03:33:41;3.80;;;3.50;;
2129;SDS011;1071;52.544;13.374;2023-08-30T03:36:11;3.40;;;3.10;;
2129;SDS011;1071;52.544;13.374;2023-08-30T03:38:39;3.90;;;3.60;;
2129;SDS011;1071;52.544;13.374;2023-08-30T03:41:06;4.27;;;3.97;;
2129;SDS011;1071;52.544;13.374;2023-08-30T03:43:34;4.23;;;3.97;;
2129;SDS011;1071;52.544;13.374;2023-08-30T03:46:02;4.10;;;3.80;;
2129;SDS011;1071;52.544;13.374;2023-08-30T03:48:30;4.80;;;4.40;;
2129;SDS011;1071;52.544;13.374;2023-08-30T03:50:58;4.50;;;4.10;;
2129;SDS011;1071;52.544;13.374;2023-08-30T03:53:27;4.13;;;3.57;;
2129;SDS011;1071;52.544;13.374;2023-08-30T03:55:55;4.77;;;4.40;;
2129;SDS011;1071;52.544;13.374;2023-08-30T03:58:23;3.83;;;3.63;;
2129;SDS011;1071;52.544;13.374;2023-08-30T04:00:50;4.50;;;4.20;;
2129;SDS011;1071;52.544;13.374;2023-08-30T04:03:23;4.90;;;4.60;;
2129;SDS011;1071;52.544;13.374;2023-08-30T04:05:54;4.80;;;4.40;;
2129;SDS011;1071;52.544;13.374;2023-08-30T04:08:21;5.07;;;4.63;;
2129;SDS011;1071;52.544;13.374;2023-08-30T04:10:56;5.17;;;4.77;;
2129;SDS011;1071;52.544;13.374;2023-08-30T04:13:23;4.90;;;4.50;;
2129;SDS011;1071;52.544;13.374;2023-08-30T04:15:51;4.50;;;4.20;;
2129;SDS011;1071;52.544;13.374;2023-08-30T04:18:18;5.63;;;5.23;;
2129;SDS011;1071;52.544;13.374;2023-08-30T04:20:47;5.20;;;4.23;;
2129;SDS011;1071;52.544;13.374;2023-08-30T04:23:14;5.60;;;5.20;;
2129;SDS011;1071;52.544;13.374;2023-08-30T04:25:41;5.87;;;5.37;;
2129;SDS011;1071;52.544;13.374;2023-08-30T04:28:08;6.30;;;5.40;;
2129;SDS011;1071;52.544;13.374;2023-08-30T04:30:35;5.60;;;5.10;;
2129;SDS011;1071;52.544;13.374;2023-08-30T04:33:03;6.30;;;5.80;;
2129;SDS011;1071;52.544;13.374;2023-08-30T04:35:36;5.10;;;4.70;;
2129;SDS011;1071;52.544;13.374;2023-08-30T04:38:05;5.17;;;4.57;;
2129;SDS011;1071;52.544;13.374;2023-08-30T04:40:32;5.27;;;4.77;;
2129;SDS011;1071;52.544;13.374;2023-08-30T04:42:59;5.87;;;5.47;;
2129;SDS011;1071;52.544;13.374;2023-08-30T04:45:27;4.50;;;3.87;;
2129;SDS011;1071;52.544;13.374;2023-08-30T04:47:57;5.20;;;4.70;;
2129;SDS011;1071;52.544;13.374;2023-08-30T04:50:24;5.27;;;4.87;;
2129;SDS011;1071;52.544;13.374;2023-08-30T04:52:52;4.60;;;4.20;;
2129;SDS011;1071;52.544;13.374;2023-08-30T04:55:19;5.20;;;4.77;;
2129;SDS011;1071;52.544;13.374;2023-08-30T04:57:46;4.60;;;4.30;;
2129;SDS011;1071;52.544;13.374;2023-08-30T05:00:13;6.57;;;5.03;;
2129;SDS011;1071;52.544;13.374;2023-08-30T05:02:41;4.93;;;4.53;;
2129;SDS011;1071;52.544;13.374;2023-08-30T05:05:09;5.30;;;4.90;;
2129;SDS011;1071;52.544;13.374;2023-08-30T05:07:39;3.93;;;3.63;;
2129;SDS011;1071;52.544;13.374;2023-08-30T05:10:08;5.93;;;4.47;;
2129;SDS011;1071;52.544;13.374;2023-08-30T05:12:36;5.17;;;4.70;;
2129;SDS011;1071;52.544;13.374;2023-08-30T05:15:03;5.70;;;5.07;;
2129;SDS011;1071;52.544;13.374;2023-08-30T05:17:30;5.10;;;4.80;;
2129;SDS011;1071;52.544;13.374;2023-08-30T05:19:58;4.53;;;4.20;;
2129;SDS011;1071;52.544;13.374;2023-08-30T05:22:25;5.87;;;5.37;;
2129;SDS011;1071;52.544;13.374;2023-08-30T05:24:52;5.03;;;4.67;;
2129;SDS011;1071;52.544;13.374;2023-08-30T05:27:20;4.60;;;4.20;;
2129;SDS011;1071;52.544;13.374;2023-08-30T05:29:47;4.63;;;4.30;;
2129;SDS011;1071;52.544;13.374;2023-08-30T05:32:15;4.17;;;3.73;;
2129;SDS011;1071;52.544;13.374;2023-08-30T05:34:42;4.00;;;3.60;;
2129;SDS011;1071;52.544;13.374;2023-08-30T05:37:11;4.37;;;4.07;;
2129;SDS011;1071;52.544;13.374;2023-08-30T05:39:38;3.73;;;3.43;;
2129;SDS011;1071;52.544;13.374;2023-08-30T05:42:05;4.30;;;3.90;;
2129;SDS011;1071;52.544;13.374;2023-08-30T05:44:33;5.33;;;4.50;;
2129;SDS011;1071;52.544;13.374;2023-08-30T05:47:00;4.00;;;3.70;;
2129;SDS011;1071;52.544;13.374;2023-08-30T05:49:31;4.23;;;3.93;;
2129;SDS011;1071;52.544;13.374;2023-08-30T05:51:58;5.00;;;4.60;;
2129;SDS011;1071;52.544;13.374;2023-08-30T05:54:25;4.83;;;4.40;;
2129;SDS011;1071;52.544;13.374;2023-08-30T05:56:54;4.37;;;3.97;;
2129;SDS011;1071;52.544;13.374;2023-08-30T05:59:21;4.97;;;4.57;;
2129;SDS011;1071;52.544;13.374;2023-08-30T06:01:50;4.47;;;4.17;;
2129;SDS011;1071;52.544;13.374;2023-08-30T06:04:17;6.20;;;5.60;;
2129;SDS011;1071;52.544;13.374;2023-08-30T06:06:44;4.60;;;4.30;;
2129;SDS011;1071;52.544;13.374;2023-08-30T06:09:11;5.07;;;4.67;;
2129;SDS011;1071;52.544;13.374;2023-08-30T06:11:38;4.30;;;4.00;;
2129;SDS011;1071;52.544;13.374;2023-08-30T06:14:08;3.77;;;3.47;;
2129;SDS011;1071;52.544;13.374;2023-08-30T06:16:37;3.80;;;3.60;;
2129;SDS011;1071;52.544;13.374;2023-08-30T06:19:10;6.23;;;3.80;;
2129;SDS011;1071;52.544;13.374;2023-08-30T06:21:37;3.40;;;3.20;;
2129;SDS011;1071;52.544;13.374;2023-08-30T06:24:04;4.00;;;3.57;;
2129;SDS011;1071;52.544;13.374;2023-08-30T06:26:32;4.27;;;3.87;;
2129;SDS011;1071;52.544;13.374;2023-08-30T06:28:59;3.47;;;3.27;;
2129;SDS011;1071;52.544;13.374;2023-08-30T06:31:26;3.53;;;3.23;;
2129;SDS011;1071;52.544;13.374;2023-08-30T06:33:57;3.80;;;3.60;;
2129;SDS011;1071;52.544;13.374;2023-08-30T06:36:25;3.70;;;3.40;;
2129;SDS011;1071;52.544;13.374;2023-08-30T06:38:52;4.90;;;3.77;;
2129;SDS011;1071;52.544;13.374;2023-08-30T06:41:20;3.83;;;3.53;;
2129;SDS011;1071;52.544;13.374;2023-08-30T06:43:46;9.83;;;4.50;;
2129;SDS011;1071;52.544;13.374;2023-08-30T06:46:13;4.87;;;4.57;;
2129;SDS011;1071;52.544;13.374;2023-08-30T06:48:40;4.07;;;3.80;;
2129;SDS011;1071;52.544;13.374;2023-08-30T06:51:07;5.43;;;5.03;;
2129;SDS011;1071;52.544;13.374;2023-08-30T06:53:37;4.53;;;4.20;;
2129;SDS011;1071;52.544;13.374;2023-08-30T06:56:04;4.63;;;4.33;;
2129;SDS011;1071;52.544;13.374;2023-08-30T06:58:31;6.37;;;5.77;;
2129;SDS011;1071;52.544;13.374;2023-08-30T07:00:58;4.70;;;4.30;;
2129;SDS011;1071;52.544;13.374;2023-08-30T07:03:25;4.63;;;4.33;;
2129;SDS011;1071;52.544;13.374;2023-08-30T07:05:52;6.10;;;3.67;;
2129;SDS011;1071;52.544;13.374;2023-08-30T07:08:19;3.67;;;3.37;;
2129;SDS011;1071;52.544;13.374;2023-08-30T07:10:50;5.70;;;4.03;;
2129;SDS011;1071;52.544;13.374;2023-08-30T07:13:18;4.50;;;4.20;;
2129;SDS011;1071;52.544;13.374;2023-08-30T07:15:45;4.60;;;4.20;;
2129;SDS011;1071;52.544;13.374;2023-08-30T07:18:18;4.60;;;4.03;;
2129;SDS011;1071;52.544;13.374;2023-08-30T07:20:45;6.13;;;4.23;;
2129;SDS011;1071;52.544;13.374;2023-08-30T07:23:12;5.80;;;5.37;;
2129;SDS011;1071;52.544;13.374;2023-08-30T07:25:39;5.17;;;4.77;;
2129;SDS011;1071;52.544;13.374;2023-08-30T07:28:07;4.20;;;3.80;;
2129;SDS011;1071;52.544;13.374;2023-08-30T07:30:35;5.00;;;4.60;;
2129;SDS011;1071;52.544;13.374;2023-08-30T07:33:03;4.80;;;4.40;;
2129;SDS011;1071;52.544;13.374;2023-08-30T07:35:30;4.40;;;4.10;;
2129;SDS011;1071;52.544;13.374;2023-08-30T07:37:57;4.10;;;3.70;;
2129;SDS011;1071;52.544;13.374;2023-08-30T07:40:24;3.60;;;3.40;;
2129;SDS011;1071;52.544;13.374;2023-08-30T07:42:53;3.67;;;3.37;;
2129;SDS011;1071;52.544;13.374;2023-08-30T07:45:21;4.57;;;3.80;;
2129;SDS011;1071;52.544;13.374;2023-08-30T07:47:49;4.33;;;4.03;;
2129;SDS011;1071;52.544;13.374;2023-08-30T07:50:16;4.30;;;4.00;;
2129;SDS011;1071;52.544;13.374;2023-08-30T07:52:43;5.07;;;4.63;;
2129;SDS011;1071;52.544;13.374;2023-08-30T07:55:15;5.70;;;5.20;;
2129;SDS011;1071;52.544;13.374;2023-08-30T07:57:43;4.90;;;4.53;;
2129;SDS011;1071;52.544;13.374;2023-08-30T08:00:10;7.13;;;4.87;;
2129;SDS011;1071;52.544;13.374;2023-08-30T08:02:40;7.43;;;5.00;;
2129;SDS011;1071;52.544;13.374;2023-08-30T08:05:07;4.70;;;4.37;;
2129;SDS011;1071;52.544;13.374;2023-08-30T08:07:37;5.40;;;4.10;;
2129;SDS011;1071;52.544;13.374;2023-08-30T08:10:05;3.77;;;3.47;;
2129;SDS011;1071;52.544;13.374;2023-08-30T08:12:34;4.03;;;3.70;;
2129;SDS011;1071;52.544;13.374;2023-08-30T08:15:02;3.67;;;3.37;;
2129;SDS011;1071;52.544;13.374;2023-08-30T08:17:30;4.63;;;4.33;;
2129;SDS011;1071;52.544;13.374;2023-08-30T08:20:01;3.97;;;3.67;;
2129;SDS011;1071;52.544;13.374;2023-08-30T08:22:29;4.13;;;3.73;;
2129;SDS011;1071;52.544;13.374;2023-08-30T08:24:56;9.83;;;5.43;;
2129;SDS011;1071;52.544;13.374;2023-08-30T08:27:24;6.13;;;3.43;;
2129;SDS011;1071;52.544;13.374;2023-08-30T08:29:51;7.20;;;4.20;;
2129;SDS011;1071;52.544;13.374;2023-08-30T08:32:19;4.00;;;3.70;;
2129;SDS011;1071;52.544;13.374;2023-08-30T08:34:46;4.93;;;4.53;;
2129;SDS011;1071;52.544;13.374;2023-08-30T08:37:14;4.83;;;3.60;;
2129;SDS011;1071;52.544;13.374;2023-08-30T08:39:42;3.63;;;3.13;;
2129;SDS011;1071;52.544;13.374;2023-08-30T08:42:17;6.50;;;3.70;;
2129;SDS011;1071;52.544;13.374;2023-08-30T08:44:46;4.20;;;3.27;;
2129;SDS011;1071;52.544;13.374;2023-08-30T08:47:14;5.17;;;3.10;;
2129;SDS011;1071;52.544;13.374;2023-08-30T08:49:44;2.80;;;2.60;;
2129;SDS011;1071;52.544;13.374;2023-08-30T08:52:14;3.03;;;2.73;;
2129;SDS011;1071;52.544;13.374;2023-08-30T08:54:49;2.43;;;2.33;;
2129;SDS011;1071;52.544;13.374;2023-08-30T08:57:17;2.50;;;2.30;;
2129;SDS011;1071;52.544;13.374;2023-08-30T08:59:45;4.03;;;2.23;;
2129;SDS011;1071;52.544;13.374;2023-08-30T09:02:13;2.07;;;1.97;;
2129;SDS011;1071;52.544;13.374;2023-08-30T09:04:44;2.83;;;2.63;;
2129;SDS011;1071;52.544;13.374;2023-08-30T09:07:11;2.27;;;1.80;;
2129;SDS011;1071;52.544;13.374;2023-08-30T09:09:40;3.07;;;2.10;;
2129;SDS011;1071;52.544;13.374;2023-08-30T09:12:07;2.80;;;2.17;;
2129;SDS011;1071;52.544;13.374;2023-08-30T09:14:35;2.30;;;2.07;;
2129;SDS011;1071;52.544;13.374;2023-08-30T09:17:02;2.27;;;2.00;;
2129;SDS011;1071;52.544;13.374;2023-08-30T09:19:35;3.10;;;2.50;;
2129;SDS011;1071;52.544;13.374;2023-08-30T09:22:03;2.10;;;2.00;;
2129;SDS011;1071;52.544;13.374;2023-08-30T09:24:40;1.70;;;1.60;;
2129;SDS011;1071;52.544;13.374;2023-08-30T09:27:08;3.30;;;2.47;;
2129;SDS011;1071;52.544;13.374;2023-08-30T09:29:37;3.90;;;2.27;;
2129;SDS011;1071;52.544;13.374;2023-08-30T09:32:08;6.53;;;2.90;;
2129;SDS011;1071;52.544;13.374;2023-08-30T09:34:36;2.20;;;2.10;;
2129;SDS011;1071;52.544;13.374;2023-08-30T09:37:19;2.20;;;2.10;;
2129;SDS011;1071;52.544;13.374;2023-08-30T09:39:57;3.10;;;2.90;;
2129;SDS011;1071;52.544;13.374;2023-08-30T09:42:29;3.37;;;3.07;;
2129;SDS011;1071;52.544;13.374;2023-08-30T09:45:00;3.27;;;2.97;;
2129;SDS011;1071;52.544;13.374;2023-08-30T09:47:32;3.53;;;2.27;;
2129;SDS011;1071;52.544;13.374;2023-08-30T09:50:00;1.97;;;1.80;;
2129;SDS011;1071;52.544;13.374;2023-08-30T09:52:36;2.47;;;2.27;;
2129;SDS011;1071;52.544;13.374;2023-08-30T09:55:23;2.60;;;2.40;;
2129;SDS011;1071;52.544;13.374;2023-08-30T09:57:51;3.47;;;2.43;;
2129;SDS011;1071;52.544;13.374;2023-08-30T10:00:20;3.00;;;2.53;;
2129;SDS011;1071;52.544;13.374;2023-08-30T10:02:53;2.33;;;2.13;;
2129;SDS011;1071;52.544;13.374;2023-08-30T10:05:21;4.30;;;2.10;;
2129;SDS011;1071;52.544;13.374;2023-08-30T10:07:51;2.83;;;2.53;;
2129;SDS011;1071;52.544;13.374;2023-08-30T10:10:24;1.60;;;1.50;;
2129;SDS011;1071;52.544;13.374;2023-08-30T10:12:56;1.60;;;1.50;;
2129;SDS011;1071;52.544;13.374;2023-08-30T10:15:27;1.70;;;1.57;;
2129;SDS011;1071;52.544;13.374;2023-08-30T10:17:58;2.13;;;1.93;;
2129;SDS011;1071;52.544;13.374;2023-08-30T10:20:28;2.50;;;2.30;;
2129;SDS011;1071;52.544;13.374;2023-08-30T10:22:55;4.27;;;2.20;;
2129;SDS011;1071;52.544;13.374;2023-08-30T10:25:27;3.13;;;1.83;;
2129;SDS011;1071;52.544;13.374;2023-08-30T10:27:57;1.73;;;1.63;;
2129;SDS011;1071;52.544;13.374;2023-08-30T10:30:25;2.23;;;2.13;;
2129;SDS011;1071;52.544;13.374;2023-08-30T10:32:53;3.60;;;3.30;;
2129;SDS011;1071;52.544;13.374;2023-08-30T10:35:24;2.80;;;2.60;;
2129;SDS011;1071;52.544;13.374;2023-08-30T10:37:56;3.70;;;2.77;;
2129;SDS011;1071;52.544;13.374;2023-08-30T10:40:26;3.03;;;2.83;;
2129;SDS011;1071;52.544;13.374;2023-08-30T10:43:00;3.07;;;2.20;;
2129;SDS011;1071;52.544;13.374;2023-08-30T10:45:28;2.40;;;2.20;;
2129;SDS011;1071;52.544;13.374;2023-08-30T10:47:59;3.10;;;2.50;;
2129;SDS011;1071;52.544;13.374;2023-08-30T10:50:34;2.63;;;2.43;;
2129;SDS011;1071;52.544;13.374;2023-08-30T10:53:12;3.23;;;3.00;;
2129;SDS011;1071;52.544;13.374;2023-08-30T10:55:43;4.67;;;3.80;;
2129;SDS011;1071;52.544;13.374;2023-08-30T10:58:38;3.87;;;3.53;;
2129;SDS011;1071;52.544;13.374;2023-08-30T11:01:07;3.70;;;3.40;;
2129;SDS011;1071;52.544;13.374;2023-08-30T11:03:38;3.27;;;3.07;;
2129;SDS011;1071;52.544;13.374;2023-08-30T11:06:12;3.00;;;2.23;;
2129;SDS011;1071;52.544;13.374;2023-08-30T11:08:41;2.57;;;2.33;;
2129;SDS011;1071;52.544;13.374;2023-08-30T11:11:15;2.10;;;1.73;;
2129;SDS011;1071;52.544;13.374;2023-08-30T11:13:42;2.70;;;2.23;;
2129;SDS011;1071;52.544;13.374;2023-08-30T11:16:09;3.10;;;2.27;;
2129;SDS011;1071;52.544;13.374;2023-08-30T11:18:37;2.80;;;2.53;;
2129;SDS011;1071;52.544;13.374;2023-08-30T11:21:06;2.30;;;2.00;;
2129;SDS011;1071;52.544;13.374;2023-08-30T11:23:34;2.47;;;2.03;;
2129;SDS011;1071;52.544;13.374;2023-08-30T11:26:01;5.27;;;2.00;;
2129;SDS011;1071;52.544;13.374;2023-08-30T11:28:36;2.20;;;2.00;;
2129;SDS011;1071;52.544;13.374;2023-08-30T11:31:35;2.30;;;2.13;;
2129;SDS011;1071;52.544;13.374;2023-08-30T11:34:02;2.97;;;2.10;;
2129;SDS011;1071;52.544;13.374;2023-08-30T11:36:30;2.03;;;1.93;;
2129;SDS011;1071;52.544;13.374;2023-08-30T11:38:59;1.80;;;1.70;;
2129;SDS011;1071;52.544;13.374;2023-08-30T11:41:29;3.30;;;1.67;;
2129;SDS011;1071;52.544;13.374;2023-08-30T11:44:05;2.17;;;1.70;;
2129;SDS011;1071;52.544;13.374;2023-08-30T11:46:32;2.90;;;2.70;;
2129;SDS011;1071;52.544;13.374;2023-08-30T11:48:59;2.50;;;2.00;;
2129;SDS011;1071;52.544;13.374;2023-08-30T11:51:27;2.80;;;2.60;;
2129;SDS011;1071;52.544;13.374;2023-08-30T11:53:55;2.17;;;2.03;;
2129;SDS011;1071;52.544;13.374;2023-08-30T11:56:23;2.37;;;2.00;;
2129;SDS011;1071;52.544;13.374;2023-08-30T11:58:50;3.27;;;2.20;;
2129;SDS011;1071;52.544;13.374;2023-08-30T12:01:19;2.37;;;2.17;;
2129;SDS011;1071;52.544;13.374;2023-08-30T12:03:47;2.43;;;2.00;;
2129;SDS011;1071;52.544;13.374;2023-08-30T12:06:17;3.00;;;2.73;;
2129;SDS011;1071;52.544;13.374;2023-08-30T12:08:47;2.40;;;2.20;;
2129;SDS011;1071;52.544;13.374;2023-08-30T12:11:25;2.43;;;2.23;;
2129;SDS011;1071;52.544;13.374;2023-08-30T12:13:54;2.40;;;2.10;;
2129;SDS011;1071;52.544;13.374;2023-08-30T12:16:31;3.30;;;2.40;;
2129;SDS011;1071;52.544;13.374;2023-08-30T12:19:07;3.03;;;2.27;;
2129;SDS011;1071;52.544;13.374;2023-08-30T12:21:38;2.80;;;2.53;;
2129;SDS011;1071;52.544;13.374;2023-08-30T12:24:06;3.30;;;3.10;;
2129;SDS011;1071;52.544;13.374;2023-08-30T12:26:36;4.37;;;3.87;;
2129;SDS011;1071;52.544;13.374;2023-08-30T12:29:05;4.93;;;4.53;;
2129;SDS011;1071;52.544;13.374;2023-08-30T12:31:36;4.10;;;3.77;;
2129;SDS011;1071;52.544;13.374;2023-08-30T12:34:03;3.40;;;3.10;;
2129;SDS011;1071;52.544;13.374;2023-08-30T12:36:31;4.10;;;3.27;;
2129;SDS011;1071;52.544;13.374;2023-08-30T12:38:59;3.43;;;2.50;;
2129;SDS011;1071;52.544;13.374;2023-08-30T12:41:29;2.80;;;2.60;;
2129;SDS011;1071;52.544;13.374;2023-08-30T12:43:58;2.40;;;2.20;;
2129;SDS011;1071;52.544;13.374;2023-08-30T12:46:27;2.53;;;2.33;;
2129;SDS011;1071;52.544;13.374;2023-08-30T12:48:58;2.40;;;2.17;;
2129;SDS011;1071;52.544;13.374;2023-08-30T12:51:25;2.83;;;2.63;;
2129;SDS011;1071;52.544;13.374;2023-08-30T12:53:52;2.80;;;2.50;;
2129;SDS011;1071;52.544;13.374;2023-08-30T12:56:19;3.70;;;2.20;;
2129;SDS011;1071;52.544;13.374;2023-08-30T12:58:46;2.90;;;2.70;;
2129;SDS011;1071;52.544;13.374;2023-08-30T13:01:15;4.40;;;3.00;;
2129;SDS011;1071;52.544;13.374;2023-08-30T13:03:43;5.53;;;3.77;;
2129;SDS011;1071;52.544;13.374;2023-08-30T13:06:14;3.87;;;3.50;;
2129;SDS011;1071;52.544;13.374;2023-08-30T13:08:41;3.13;;;2.93;;
2129;SDS011;1071;52.544;13.374;2023-08-30T13:11:11;3.60;;;3.27;;
2129;SDS011;1071;52.544;13.374;2023-08-30T13:13:43;3.90;;;3.10;;
2129;SDS011;1071;52.544;13.374;2023-08-30T13:16:10;2.53;;;2.33;;
2129;SDS011;1071;52.544;13.374;2023-08-30T13:18:37;7.03;;;3.87;;
2129;SDS011;1071;52.544;13.374;2023-08-30T13:21:05;2.97;;;2.50;;
2129;SDS011;1071;52.544;13.374;2023-08-30T13:23:33;3.80;;;3.50;;
2129;SDS011;1071;52.544;13.374;2023-08-30T13:26:00;2.60;;;2.40;;
2129;SDS011;1071;52.544;13.374;2023-08-30T13:28:28;3.10;;;2.90;;
2129;SDS011;1071;52.544;13.374;2023-08-30T13:30:55;2.40;;;2.20;;
2129;SDS011;1071;52.544;13.374;2023-08-30T13:33:22;3.07;;;2.83;;
2129;SDS011;1071;52.544;13.374;2023-08-30T13:35:49;3.27;;;2.70;;
2129;SDS011;1071;52.544;13.374;2023-08-30T13:38:16;4.77;;;4.07;;
2129;SDS011;1071;52.544;13.374;2023-08-30T13:40:45;2.50;;;2.30;;
2129;SDS011;1071;52.544;13.374;2023-08-30T13:43:15;2.80;;;2.23;;
2129;SDS011;1071;52.544;13.374;2023-08-30T13:45:42;1.97;;;1.87;;
2129;SDS011;1071;52.544;13.374;2023-08-30T13:48:24;2.57;;;2.37;;
2129;SDS011;1071;52.544;13.374;2023-08-30T13:51:07;2.90;;;2.57;;
2129;SDS011;1071;52.544;13.374;2023-08-30T13:53:37;2.50;;;2.30;;
2129;SDS011;1071;52.544;13.374;2023-08-30T13:56:05;2.30;;;2.17;;
2129;SDS011;1071;52.544;13.374;2023-08-30T14:01:56;4.10;;;2.60;;
2129;SDS011;1071;52.544;13.374;2023-08-30T14:04:23;2.50;;;2.30;;
2129;SDS011;1071;52.544;13.374;2023-08-30T14:06:52;2.13;;;2.03;;
2129;SDS011;1071;52.544;13.374;2023-08-30T14:09:26;3.17;;;2.57;;
2129;SDS011;1071;52.544;13.374;2023-08-30T14:11:59;2.87;;;2.20;;
2129;SDS011;1071;52.544;13.374;2023-08-30T14:14:28;2.70;;;1.70;;
2129;SDS011;1071;52.544;13.374;2023-08-30T14:16:55;3.50;;;2.40;;
2129;SDS011;1071;52.544;13.374;2023-08-30T14:19:27;1.80;;;1.70;;
2129;SDS011;1071;52.544;13.374;2023-08-30T14:21:56;2.37;;;2.17;;
2129;SDS011;1071;52.544;13.374;2023-08-30T14:24:31;2.10;;;2.00;;
2129;SDS011;1071;52.544;13.374;2023-08-30T14:27:13;2.47;;;2.27;;
2129;SDS011;1071;52.544;13.374;2023-08-30T14:29:40;2.87;;;2.20;;
2129;SDS011;1071;52.544;13.374;2023-08-30T14:32:10;2.37;;;1.90;;
2129;SDS011;1071;52.544;13.374;2023-08-30T14:34:37;2.90;;;2.70;;
2129;SDS011;1071;52.544;13.374;2023-08-30T14:37:07;3.03;;;2.10;;
2129;SDS011;1071;52.544;13.374;2023-08-30T14:39:39;2.20;;;2.00;;
2129;SDS011;1071;52.544;13.374;2023-08-30T14:42:06;1.77;;;1.67;;
2129;SDS011;1071;52.544;13.374;2023-08-30T14:44:35;1.63;;;1.53;;
2129;SDS011;1071;52.544;13.374;2023-08-30T14:47:02;1.57;;;1.47;;
2129;SDS011;1071;52.544;13.374;2023-08-30T14:52:31;2.43;;;1.93;;
2129;SDS011;1071;52.544;13.374;2023-08-30T14:55:14;2.23;;;1.67;;
2129;SDS011;1071;52.544;13.374;2023-08-30T14:57:45;2.00;;;1.90;;
2129;SDS011;1071;52.544;13.374;2023-08-30T15:00:14;4.17;;;2.10;;
2129;SDS011;1071;52.544;13.374;2023-08-30T15:02:43;2.00;;;1.90;;
2129;SDS011;1071;52.544;13.374;2023-08-30T15:05:13;2.73;;;1.80;;
2129;SDS011;1071;52.544;13.374;2023-08-30T15:07:40;1.80;;;1.70;;
2129;SDS011;1071;52.544;13.374;2023-08-30T15:10:07;2.73;;;2.20;;
2129;SDS011;1071;52.544;13.374;2023-08-30T15:12:41;2.80;;;2.60;;
2129;SDS011;1071;52.544;13.374;2023-08-30T15:15:10;3.23;;;2.23;;
2129;SDS011;1071;52.544;13.374;2023-08-30T15:17:38;2.10;;;2.00;;
2129;SDS011;1071;52.544;13.374;2023-08-30T15:20:06;14.37;;;12.97;;
2129;SDS011;1071;52.544;13.374;2023-08-30T15:22:50;21.60;;;19.40;;
2129;SDS011;1071;52.544;13.374;2023-08-30T15:25:17;24.63;;;22.13;;